• vieta
  • image
  • image
  • image

Šiandien

Sekmadienis, 24 Gegužė 2015

Orų prognozė

Šiauliai 13 °C
   

Orų prognozė aviacijai

[source: ADDS]
METAR
EYSA 241850Z 27007KT CAVOK 13/05 Q1017 =
TAF
TAF EYSA 241700Z 2418/2503 VRB04KT CAVOK =
SR / SS: 02:05 / 18:43 UTC (EYSA 2015-05-24)

Lankytojai

Mes turime 4 svečius online

tic logo lt